29°C  Θερμ.
18°C  Σημείο Δρόσου
51%  Υγρασία
Θερμοκρασία
19 KM/H
12 MPH
10 KTS
200°
Νότιος Νότιο
Δυτικός

Ταχύτητα Ανέμου
Αίθριος καιρός
Καθαρός ουρανός
Ατμοσφαιρική πίεση 1015 (hPa) - 30 (in)
Ορατότητα 10.0 (km) - 6.2 (mi)

Τρέχουσες συνθήκες
LGTS
Location 15(km)
Metar :LGTS 251020Z 20010KT CAVOK 29/18 Q1015 NOSIG
Wed 25th May 12:20 pm

Airport
  Metar Aviation API Data Provided by https://www.checkwx.com/ PHP scripts by weather34.com ©2022